Pine, Idaho
Current Conditions -  °F | °C
As of 1:08 AM on Tuesday 21 Oct 2014 (Local Time) from KMUO Reporting Station
Light Rain Light Rain  
Wind Chill: 61°   Ceiling: 8000
Heat Index: 61°   Visibility: 10mi
Dew Point: 43°   Wind: 31mph
Humidity: 52%   Direction: 310°NW
Pressure: 29.76"   Gusts: 43mph
Location:  43.2609°N, 115.781°W
Report Text: KMUO 210708Z AUTO 31027G37KT 10SM -RA FEW012 BKN080 OVC100 16/06 A2976 RMK AO2 PRESRR
Loading
Personal Weather Stations






























Interactive Weather Map
Tropical Storm Tracking
New forecast layout! Learn more

10-Day Weather Forecast

Advertisements
Track Severe Weather on mobile